Time,TemperatureF,DewpointF,PressureIn,WindDirection,WindDirectionDegrees,WindSpeedMPH,WindSpeedGustMPH,Humidity,HourlyPrecipIn,Conditions,Clouds,dailyrainin,SoftwareType,DateUTC
2013-10-07 00:00:00,57.4,47.0,30.12,NNE,25,0.0,0.0,69,0.00,,,0.00,weatherlink.com 1.10,2013-10-07 05:00:00,
2013-10-07 00:15:00,57.0,46.0,30.12,NNE,25,0.0,0.0,66,0.00,,,0.00,weatherlink.com 1.10,2013-10-07 05:15:00,
2013-10-07 00:30:00,58.7,46.0,30.12,West,264,1.0,1.0,64,0.00,,,0.00,weatherlink.com 1.10,2013-10-07 05:30:00,
2013-10-07 00:45:00,60.4,49.0,30.11,West,262,0.0,2.0,66,0.00,,,0.00,weatherlink.com 1.10,2013-10-07 05:45:00,
2013-10-07 01:00:00,60.0,49.0,30.12,West,262,0.0,1.0,67,0.00,,,0.00,weatherlink.com 1.10,2013-10-07 06:00:00,
2013-10-07 01:15:00,60.1,52.0,30.12,West,264,1.0,2.0,75,0.00,,,0.00,weatherlink.com 1.10,2013-10-07 06:15:00,
2013-10-07 01:30:00,59.4,53.0,30.12,WSW,258,2.0,2.0,78,0.00,,,0.00,weatherlink.com 1.10,2013-10-07 06:30:00,
2013-10-07 01:45:00,58.7,53.0,30.11,WSW,245,2.0,2.0,80,0.00,,,0.00,weatherlink.com 1.10,2013-10-07 06:45:00,
2013-10-07 02:00:00,59.3,53.0,30.11,WSW,248,0.0,1.0,80,0.00,,,0.00,weatherlink.com 1.10,2013-10-07 07:00:00,
2013-10-07 02:15:00,59.7,53.0,30.11,WSW,257,1.0,2.0,79,0.00,,,0.00,weatherlink.com 1.10,2013-10-07 07:15:00,
2013-10-07 02:30:00,60.2,53.0,30.11,WSW,258,2.0,2.0,76,0.00,,,0.00,weatherlink.com 1.10,2013-10-07 07:30:00,
2013-10-07 02:45:00,61.1,52.0,30.11,WSW,245,3.0,3.0,72,0.00,,,0.00,weatherlink.com 1.10,2013-10-07 07:45:00,
2013-10-07 03:00:00,60.7,52.0,30.10,WSW,258,2.0,3.0,74,0.00,,,0.00,weatherlink.com 1.10,2013-10-07 08:00:00,
2013-10-07 03:15:00,60.4,52.0,30.10,WSW,249,0.0,1.0,75,0.00,,,0.00,weatherlink.com 1.10,2013-10-07 08:15:00,
2013-10-07 03:30:00,59.8,53.0,30.10,West,262,1.0,1.0,77,0.00,,,0.00,weatherlink.com 1.10,2013-10-07 08:30:00,
2013-10-07 03:45:00,60.0,52.0,30.10,WSW,250,0.0,2.0,76,0.00,,,0.00,weatherlink.com 1.10,2013-10-07 08:45:00,
2013-10-07 04:00:00,59.2,53.0,30.10,West,266,1.0,2.0,79,0.00,,,0.00,weatherlink.com 1.10,2013-10-07 09:00:00,
2013-10-07 04:15:00,58.6,52.0,30.10,West,260,1.0,1.0,80,0.00,,,0.00,weatherlink.com 1.10,2013-10-07 09:15:00,
2013-10-07 04:30:00,57.6,52.0,30.10,West,260,0.0,1.0,80,0.00,,,0.00,weatherlink.com 1.10,2013-10-07 09:30:00,
2013-10-07 04:45:00,57.0,51.0,30.10,West,260,0.0,0.0,80,0.00,,,0.00,weatherlink.com 1.10,2013-10-07 09:45:00,
2013-10-07 05:00:00,56.0,50.0,30.10,West,260,0.0,0.0,79,0.00,,,0.00,weatherlink.com 1.10,2013-10-07 10:00:00,
2013-10-07 05:15:00,56.2,49.0,30.10,West,260,0.0,0.0,77,0.00,,,0.00,weatherlink.com 1.10,2013-10-07 10:15:00,
2013-10-07 05:30:00,54.5,49.0,30.11,West,260,0.0,0.0,83,0.00,,,0.00,weatherlink.com 1.10,2013-10-07 10:30:00,
2013-10-07 05:45:00,53.3,49.0,30.11,West,261,0.0,0.0,85,0.00,,,0.00,weatherlink.com 1.10,2013-10-07 10:45:00,
2013-10-07 06:01:00,53.0,48.0,30.10,West,260,0.0,0.0,83,0.00,,,0.00,weatherlink.com 1.10,2013-10-07 11:01:00,
2013-10-07 06:16:00,52.7,49.0,30.11,West,260,0.0,0.0,86,0.00,,,0.00,weatherlink.com 1.10,2013-10-07 11:16:00,
2013-10-07 06:31:00,52.0,48.0,30.11,West,260,0.0,0.0,87,0.00,,,0.00,weatherlink.com 1.10,2013-10-07 11:31:00,
2013-10-07 06:46:00,51.6,49.0,30.11,West,262,0.0,0.0,89,0.00,,,0.00,weatherlink.com 1.10,2013-10-07 11:46:00,
2013-10-07 07:01:00,51.4,49.0,30.12,West,262,0.0,0.0,90,0.00,,,0.00,weatherlink.com 1.10,2013-10-07 12:01:00,
2013-10-07 07:16:00,51.3,49.0,30.12,West,260,0.0,0.0,90,0.00,,,0.00,weatherlink.com 1.10,2013-10-07 12:16:00,
2013-10-07 07:31:00,51.2,49.0,30.12,West,260,0.0,0.0,91,0.00,,,0.00,weatherlink.com 1.10,2013-10-07 12:31:00,
2013-10-07 07:46:00,51.8,50.0,30.12,East,89,1.0,2.0,93,0.00,,,0.00,weatherlink.com 1.10,2013-10-07 12:46:00,
2013-10-07 08:01:00,53.5,51.0,30.13,ENE,78,3.0,3.0,92,0.00,,,0.00,weatherlink.com 1.10,2013-10-07 13:01:00,
2013-10-07 08:16:00,54.6,52.0,30.13,East,79,3.0,3.0,90,0.00,,,0.00,weatherlink.com 1.10,2013-10-07 13:16:00,
2013-10-07 08:31:00,56.3,52.0,30.14,ENE,74,3.0,4.0,85,0.00,,,0.00,weatherlink.com 1.10,2013-10-07 13:31:00,
2013-10-07 08:46:00,58.2,53.0,30.14,East,86,3.0,3.0,82,0.00,,,0.00,weatherlink.com 1.10,2013-10-07 13:46:00,
2013-10-07 09:01:00,59.4,52.0,30.15,ENE,74,3.0,5.0,77,0.00,,,0.00,weatherlink.com 1.10,2013-10-07 14:01:00,
2013-10-07 09:16:00,60.5,52.0,30.15,ENE,62,4.0,5.0,74,0.00,,,0.00,weatherlink.com 1.10,2013-10-07 14:16:00,
2013-10-07 09:31:00,61.4,54.0,30.16,ENE,73,4.0,5.0,77,0.00,,,0.00,weatherlink.com 1.10,2013-10-07 14:31:00,
2013-10-07 09:46:00,63.6,53.0,30.16,NE,53,3.0,5.0,69,0.00,,,0.00,weatherlink.com 1.10,2013-10-07 14:46:00,
2013-10-07 10:01:00,66.3,54.0,30.16,ENE,77,4.0,5.0,65,0.00,,,0.00,weatherlink.com 1.10,2013-10-07 15:01:00,
2013-10-07 10:16:00,67.1,53.0,30.16,ENE,68,6.0,6.0,62,0.00,,,0.00,weatherlink.com 1.10,2013-10-07 15:16:00,
2013-10-07 10:31:00,68.9,54.0,30.16,NE,56,5.0,6.0,59,0.00,,,0.00,weatherlink.com 1.10,2013-10-07 15:31:00,
2013-10-07 10:46:00,70.3,54.0,30.16,East,81,8.0,8.0,57,0.00,,,0.00,weatherlink.com 1.10,2013-10-07 15:46:00,
2013-10-07 11:01:00,72.0,53.0,30.16,ENE,65,3.0,6.0,51,0.00,,,0.00,weatherlink.com 1.10,2013-10-07 16:01:00,
2013-10-07 11:16:00,73.0,51.0,30.16,NE,53,4.0,6.0,47,0.00,,,0.00,weatherlink.com 1.10,2013-10-07 16:16:00,
2013-10-07 11:31:00,74.4,53.0,30.16,ENE,60,4.0,6.0,47,0.00,,,0.00,weatherlink.com 1.10,2013-10-07 16:31:00,
2013-10-07 11:46:00,75.4,52.0,30.16,East,92,4.0,6.0,44,0.00,,,0.00,weatherlink.com 1.10,2013-10-07 16:46:00,
2013-10-07 12:02:00,76.3,53.0,30.15,ENE,67,3.0,5.0,45,0.00,,,0.00,weatherlink.com 1.10,2013-10-07 17:02:00,
2013-10-07 12:17:00,77.7,52.0,30.15,East,96,2.0,5.0,41,0.00,,,0.00,weatherlink.com 1.10,2013-10-07 17:17:00,
2013-10-07 12:32:00,79.0,53.0,30.14,East,101,4.0,5.0,40,0.00,,,0.00,weatherlink.com 1.10,2013-10-07 17:32:00,
2013-10-07 12:47:00,79.0,49.0,30.14,NNE,26,6.0,7.0,35,0.00,,,0.00,weatherlink.com 1.10,2013-10-07 17:47:00,
2013-10-07 13:02:00,80.1,51.0,30.13,ESE,114,2.0,5.0,36,0.00,,,0.00,weatherlink.com 1.10,2013-10-07 18:02:00,
2013-10-07 13:17:00,80.2,52.0,30.12,ESE,115,1.0,8.0,37,0.00,,,0.00,weatherlink.com 1.10,2013-10-07 18:17:00,
2013-10-07 13:32:00,80.9,47.0,30.11,NW,317,0.0,6.0,30,0.00,,,0.00,weatherlink.com 1.10,2013-10-07 18:32:00,
2013-10-07 13:47:00,80.6,48.0,30.11,ESE,105,5.0,7.0,32,0.00,,,0.00,weatherlink.com 1.10,2013-10-07 18:47:00,
2013-10-07 14:02:00,81.0,47.0,30.10,ESE,117,1.0,7.0,30,0.00,,,0.00,weatherlink.com 1.10,2013-10-07 19:02:00,
2013-10-07 14:17:00,81.3,51.0,30.09,SE,146,3.0,6.0,35,0.00,,,0.00,weatherlink.com 1.10,2013-10-07 19:17:00,
2013-10-07 14:32:00,81.2,49.0,30.09,ENE,74,6.0,8.0,32,0.00,,,0.00,weatherlink.com 1.10,2013-10-07 19:32:00,
2013-10-07 14:47:00,80.9,46.0,30.08,East,87,2.0,8.0,29,0.00,,,0.00,weatherlink.com 1.10,2013-10-07 19:47:00,
2013-10-07 15:02:00,81.4,47.0,30.07,ENE,70,5.0,7.0,30,0.00,,,0.00,weatherlink.com 1.10,2013-10-07 20:02:00,
2013-10-07 15:17:00,81.9,46.0,30.06,ENE,74,6.0,9.0,28,0.00,,,0.00,weatherlink.com 1.10,2013-10-07 20:17:00,
2013-10-07 15:32:00,81.9,45.0,30.06,NE,50,2.0,6.0,27,0.00,,,0.00,weatherlink.com 1.10,2013-10-07 20:32:00,
2013-10-07 15:47:00,82.4,45.0,30.05,ESE,123,6.0,7.0,27,0.00,,,0.00,weatherlink.com 1.10,2013-10-07 20:47:00,
2013-10-07 16:02:00,82.6,47.0,30.05,ENE,70,3.0,5.0,29,0.00,,,0.00,weatherlink.com 1.10,2013-10-07 21:02:00,
2013-10-07 16:17:00,82.4,50.0,30.05,SE,141,2.0,6.0,32,0.00,,,0.00,weatherlink.com 1.10,2013-10-07 21:17:00,
2013-10-07 16:32:00,82.9,48.0,30.04,ENE,76,3.0,8.0,30,0.00,,,0.00,weatherlink.com 1.10,2013-10-07 21:32:00,
2013-10-07 16:47:00,82.8,48.0,30.04,East,98,5.0,5.0,30,0.00,,,0.00,weatherlink.com 1.10,2013-10-07 21:47:00,
2013-10-07 17:02:00,82.4,44.0,30.04,ENE,74,1.0,6.0,26,0.00,,,0.00,weatherlink.com 1.10,2013-10-07 22:02:00,
2013-10-07 17:17:00,82.7,49.0,30.03,East,94,5.0,5.0,31,0.00,,,0.00,weatherlink.com 1.10,2013-10-07 22:17:00,
2013-10-07 17:32:00,82.3,49.0,30.03,SE,126,1.0,4.0,31,0.00,,,0.00,weatherlink.com 1.10,2013-10-07 22:32:00,
2013-10-07 17:47:00,82.0,48.0,30.03,SE,128,1.0,4.0,31,0.00,,,0.00,weatherlink.com 1.10,2013-10-07 22:47:00,
2013-10-07 18:02:00,81.4,48.0,30.03,East,87,2.0,4.0,31,0.00,,,0.00,weatherlink.com 1.10,2013-10-07 23:02:00,
2013-10-07 18:17:00,81.1,49.0,30.03,East,92,1.0,3.0,33,0.00,,,0.00,weatherlink.com 1.10,2013-10-07 23:17:00,
2013-10-07 18:32:00,80.6,50.0,30.03,SE,124,0.0,3.0,34,0.00,,,0.00,weatherlink.com 1.10,2013-10-07 23:32:00,
2013-10-07 18:47:00,80.1,52.0,30.04,SE,129,1.0,1.0,38,0.00,,,0.00,weatherlink.com 1.10,2013-10-07 23:47:00,
2013-10-07 19:02:00,78.2,51.0,30.04,SE,139,0.0,1.0,39,0.00,,,0.00,weatherlink.com 1.10,2013-10-08 00:02:00,
2013-10-07 19:17:00,74.6,51.0,30.03,SSE,151,0.0,1.0,43,0.00,,,0.00,weatherlink.com 1.10,2013-10-08 00:17:00,
2013-10-07 19:32:00,72.5,49.0,30.04,SSE,160,0.0,2.0,44,0.00,,,0.00,weatherlink.com 1.10,2013-10-08 00:32:00,
2013-10-07 19:47:00,71.3,48.0,30.04,SSE,160,0.0,1.0,44,0.00,,,0.00,weatherlink.com 1.10,2013-10-08 00:47:00,
2013-10-07 20:02:00,70.2,51.0,30.04,SSE,153,0.0,0.0,50,0.00,,,0.00,weatherlink.com 1.10,2013-10-08 01:02:00,
2013-10-07 20:17:00,68.6,49.0,30.04,SE,146,0.0,0.0,49,0.00,,,0.00,weatherlink.com 1.10,2013-10-08 01:17:00,
2013-10-07 20:32:00,70.3,50.0,30.05,ESE,115,0.0,2.0,48,0.00,,,0.00,weatherlink.com 1.10,2013-10-08 01:32:00,
2013-10-07 20:47:00,67.7,51.0,30.05,ESE,115,0.0,0.0,55,0.00,,,0.00,weatherlink.com 1.10,2013-10-08 01:47:00,
2013-10-07 21:02:00,65.9,51.0,30.05,ESE,115,0.0,0.0,60,0.00,,,0.00,weatherlink.com 1.10,2013-10-08 02:02:00,
2013-10-07 21:17:00,64.6,51.0,30.06,ESE,116,0.0,0.0,62,0.00,,,0.00,weatherlink.com 1.10,2013-10-08 02:17:00,
2013-10-07 21:32:00,63.5,50.0,30.06,ESE,115,0.0,0.0,62,0.00,,,0.00,weatherlink.com 1.10,2013-10-08 02:32:00,
2013-10-07 21:47:00,64.1,50.0,30.07,ESE,116,0.0,0.0,61,0.00,,,0.00,weatherlink.com 1.10,2013-10-08 02:47:00,
2013-10-07 22:02:00,64.5,49.0,30.07,ESE,106,1.0,1.0,57,0.00,,,0.00,weatherlink.com 1.10,2013-10-08 03:02:00,
2013-10-07 22:17:00,66.4,49.0,30.07,ESE,102,0.0,1.0,54,0.00,,,0.00,weatherlink.com 1.10,2013-10-08 03:17:00,
2013-10-07 22:32:00,65.6,51.0,30.07,ESE,117,0.0,0.0,60,0.00,,,0.00,weatherlink.com 1.10,2013-10-08 03:32:00,
2013-10-07 22:47:00,63.6,50.0,30.07,ESE,117,0.0,0.0,62,0.00,,,0.00,weatherlink.com 1.10,2013-10-08 03:47:00,
2013-10-07 23:02:00,63.0,51.0,30.07,ESE,117,0.0,0.0,64,0.00,,,0.00,weatherlink.com 1.10,2013-10-08 04:02:00,
2013-10-07 23:17:00,63.3,50.0,30.07,ESE,117,0.0,0.0,62,0.00,,,0.00,weatherlink.com 1.10,2013-10-08 04:17:00,
2013-10-07 23:32:00,63.5,50.0,30.06,ESE,117,0.0,0.0,61,0.00,,,0.00,weatherlink.com 1.10,2013-10-08 04:32:00,
2013-10-07 23:48:00,62.8,50.0,30.06,ESE,117,0.0,0.0,63,0.00,,,0.00,weatherlink.com 1.10,2013-10-08 04:48:00,